Scottish Viking — IBDZ — position and weather

sailwx.info

Track history (hours):
 
Tides and Currents Weather Stations Pressure Air Temp Water Temp Dewpoint Dewpoint Depression Visibility Wind Speed Wind Dir Waves Ship Positions

Scottish Viking

Last reported at 2017-Aug-21 20:44 UTC. Time now 2017-Aug-22 18:29 UTC.
Position N 58°40' E 018°21'.

Length 186 m; draft 6.5 m.

Type: Passenger vessel. MMSI: 247265800.

Date/timePositionNaut miles runAvg speedWind from/ knotsBaromVisibWave heightAir tempDewpointWater temp
2017-Aug-21 20:44N 58°40' E 018°21'921.4
2017-Aug-21 20:17N 58°46' E 018°08'10 0.8
2017-Aug-21 07:18N 58°54' E 017°58'2 6.4
2017-Aug-21 06:58N 58°53' E 018°01'715.7
2017-Aug-21 06:30N 58°46' E 018°07'1020.5
2017-Aug-21 06:00N 58°39' E 018°20'5313.6
2017-Aug-21 02:04N 58°04' E 019°36'114.3
2017-Aug-21 02:00N 58°03' E 019°38'1014.3
2017-Aug-21 01:16N 57°58' E 019°54'414.2
2017-Aug-21 01:00N 57°56' E 020°00'1214.0
2017-Aug-21 00:09N 57°50' E 020°20'214.1
2017-Aug-20 23:59N 57°49' E 020°24'2114.0
2017-Aug-20 22:27N 57°37' E 020°57'122 4.2
2017-Aug-19 17:00N 58°54' E 017°58'5 4.6
2017-Aug-19 15:52N 58°49' E 017°60'820.7
2017-Aug-19 15:30N 58°44' E 018°11'918.7
2017-Aug-19 15:00N 58°38' E 018°23'2319.7
2017-Aug-19 13:51N 58°21' E 018°54'719.6
2017-Aug-19 13:29N 58°16' E 019°03'1119.0
2017-Aug-19 12:55N 58°10' E 019°19'1319.1
2017-Aug-19 12:14N 58°04' E 019°42'419.4
2017-Aug-19 12:00N 58°02' E 019°49'1519.2
2017-Aug-19 11:13N 57°53' E 020°12'20 1.9
2017-Aug-19 00:46N 58°02' E 019°38'5119.9
2017-Aug-18 22:12N 58°37' E 018°26'420.2
2017-Aug-18 22:01N 58°40' E 018°21'1020.3
2017-Aug-18 21:30N 58°47' E 018°07'137 7.7
2017-Aug-18 03:44N 57°24' E 021°34'3 6.7
2017-Aug-18 03:20N 57°26' E 021°30'619.6
2017-Aug-18 03:00N 57°30' E 021°20'918.3
2017-Aug-18 02:30N 57°34' E 021°06'1019.8
2017-Aug-18 02:01N 57°39' E 020°50'815.7
2017-Aug-18 01:30N 57°42' E 020°36'1118.2
2017-Aug-18 00:54N 57°49' E 020°20'2619.8
2017-Aug-17 23:33N 58°03' E 019°38'219.9
2017-Aug-17 23:28N 58°04' E 019°35'919.8
2017-Aug-17 23:00N 58°09' E 019°20'1019.4
2017-Aug-17 22:30N 58°15' E 019°05'1019.8
2017-Aug-17 22:00N 58°22' E 018°52'1019.6
2017-Aug-17 21:30N 58°29' E 018°39'1019.8
2017-Aug-17 21:00N 58°36' E 018°26'1019.8
2017-Aug-17 20:30N 58°43' E 018°13'918.6
2017-Aug-17 20:00N 58°49' E 017°60'611.1
2017-Aug-17 19:31N 58°55' E 017°59'1 1.7
2017-Aug-17 19:00N 58°54' E 017°58'0 0.0
2017-Aug-17 18:30N 58°54' E 017°58'0 0.0
2017-Aug-17 18:00N 58°54' E 017°58'0 0.0
2017-Aug-17 17:30N 58°54' E 017°58'0 0.0
2017-Aug-17 17:00N 58°54' E 017°58'0 0.0
2017-Aug-17 16:30N 58°54' E 017°58'0 0.0
2017-Aug-17 16:00N 58°54' E 017°58'0 0.0
2017-Aug-17 15:26N 58°54' E 017°58'2 4.3
2017-Aug-17 15:00N 58°54' E 018°01'917.9
2017-Aug-17 14:30N 58°46' E 018°09'1121.6
2017-Aug-17 14:00N 58°38' E 018°23'1020.4
2017-Aug-17 13:30N 58°31' E 018°37'918.8
2017-Aug-17 13:01N 58°23' E 018°47'1019.4
2017-Aug-17 12:31N 58°14' E 018°52'916.9
2017-Aug-17 12:00N 58°11' E 019°08'1020.1
2017-Aug-17 11:30N 58°10' E 019°27'1020.3
2017-Aug-17 11:00N 58°11' E 019°46'1020.1
2017-Aug-17 10:31N 58°07' E 020°03'1119.9
2017-Aug-17 09:59N 57°59' E 020°15'1120.3
2017-Aug-17 09:27N 57°50' E 020°28'3819.3
2017-Aug-17 07:30N 57°28' E 021°25'51 7.4
2017-Aug-17 00:33N 57°53' E 020°00'320.0
2017-Aug-17 00:25N 57°54' E 019°56'1219.9
2017-Aug-16 23:49N 58°02' E 019°39'720.0
2017-Aug-16 23:28N 58°06' E 019°29'1019.7
2017-Aug-16 22:59N 58°11' E 019°13'1019.8
2017-Aug-16 22:28N 58°17' E 018°58'919.7
2017-Aug-16 22:00N 58°24' E 018°47'1019.4
2017-Aug-16 21:30N 58°31' E 018°34'1019.6
2017-Aug-16 21:00N 58°38' E 018°20'1521.9
2017-Aug-16 20:18N 58°49' E 018°00'613.2
2017-Aug-16 19:53N 58°55' E 017°59'50 6.8
2017-Aug-16 12:30N 58°13' E 018°53'918.1
2017-Aug-16 12:00N 58°11' E 019°09'1019.8
2017-Aug-16 11:30N 58°09' E 019°28'917.6
2017-Aug-16 11:00N 58°01' E 019°36'1019.9
2017-Aug-16 10:30N 57°53' E 019°45'918.7
2017-Aug-16 10:00N 57°49' E 020°01'1019.5
2017-Aug-16 09:30N 57°44' E 020°18'1121.8
2017-Aug-16 09:00N 57°40' E 020°36'1019.7
2017-Aug-16 08:30N 57°36' E 020°53'1019.5
2017-Aug-16 08:00N 57°32' E 021°10'1020.0
2017-Aug-16 07:30N 57°28' E 021°26'610.4
2017-Aug-16 06:58N 57°24' E 021°34'0 1.1
2017-Aug-16 06:30N 57°24' E 021°35'1 0.4
2017-Aug-16 03:34N 57°24' E 021°33'0 5.4
2017-Aug-16 03:31N 57°24' E 021°32'1418.4
2017-Aug-16 02:46N 57°32' E 021°12'1819.1
2017-Aug-16 01:50N 57°41' E 020°43'719.3
2017-Aug-16 01:28N 57°43' E 020°30'4017.6
2017-Aug-15 23:13N 58°06' E 019°29'419.9
2017-Aug-15 23:01N 58°08' E 019°23'1121.0
2017-Aug-15 22:30N 58°15' E 019°07'918.1
2017-Aug-15 22:01N 58°21' E 018°55'1222.9
2017-Aug-15 21:30N 58°29' E 018°39'917.9
2017-Aug-15 21:00N 58°36' E 018°27'1017.8
2017-Aug-15 20:28N 58°43' E 018°14'918.7
2017-Aug-15 20:00N 58°49' E 018°02'712.9
2017-Aug-15 19:29N 58°55' E 017°59'1 1.8
2017-Aug-15 18:59N 58°54' E 017°58'0 0.0
2017-Aug-15 18:20N 58°54' E 017°58'0 0.0
2017-Aug-15 17:57N 58°54' E 017°58'0 0.0
2017-Aug-15 17:28N 58°54' E 017°58'0 0.0
2017-Aug-15 15:51N 58°54' E 017°58'0 0.1
2017-Aug-15 15:21N 58°54' E 017°58'2 5.2
2017-Aug-15 14:58N 58°54' E 018°01'817.2
2017-Aug-15 14:30N 58°46' E 018°07'1019.5
2017-Aug-15 14:00N 58°40' E 018°21'1020.2
2017-Aug-15 13:30N 58°32' E 018°35'1020.1
2017-Aug-15 12:59N 58°24' E 018°45'1320.1
2017-Aug-15 12:21N 58°12' E 018°56'819.1
2017-Aug-15 11:57N 58°11' E 019°10'919.8
2017-Aug-15 11:30N 58°09' E 019°26'1219.9
2017-Aug-15 10:53N 58°04' E 019°48'1020.0
2017-Aug-15 10:24N 58°00' E 020°05'820.3
2017-Aug-15 10:00N 57°55' E 020°17'5 0.5
2017-Aug-15 00:34N 57°53' E 020°09'519.0
2017-Aug-15 00:16N 57°54' E 019°59'518.8
2017-Aug-15 00:00N 57°54' E 019°49'918.8
2017-Aug-14 23:30N 57°56' E 019°32'1019.6
2017-Aug-14 23:00N 58°05' E 019°30'1020.5
2017-Aug-14 22:30N 58°11' E 019°13'1020.2
2017-Aug-14 22:00N 58°18' E 018°59'1122.2
2017-Aug-14 21:30N 58°26' E 018°45'1020.3
2017-Aug-14 21:01N 58°33' E 018°32'1019.4
2017-Aug-14 20:30N 58°40' E 018°19'1122.8
2017-Aug-14 20:00N 58°48' E 018°03'612.2
2017-Aug-14 19:30N 58°54' E 018°01'2 3.6
2017-Aug-14 19:00N 58°54' E 017°58'0 0.0
2017-Aug-14 18:30N 58°54' E 017°58'0 0.0
2017-Aug-14 18:01N 58°54' E 017°58'0 0.0
2017-Aug-14 17:30N 58°54' E 017°58'0 0.0
2017-Aug-14 17:00N 58°54' E 017°58'0 0.0
2017-Aug-14 16:30N 58°54' E 017°58'0 0.0
2017-Aug-14 16:00N 58°54' E 017°58'0 0.0
2017-Aug-14 15:30N 58°54' E 017°58'0 0.0
2017-Aug-14 15:00N 58°54' E 017°58'0 0.0
2017-Aug-14 14:30N 58°54' E 017°58'0 0.0
2017-Aug-14 14:00N 58°54' E 017°58'0 0.0
2017-Aug-14 13:31N 58°54' E 017°58'0 0.0
2017-Aug-14 13:00N 58°54' E 017°58'0 0.0
2017-Aug-14 12:30N 58°54' E 017°58'0 0.0
2017-Aug-14 12:00N 58°54' E 017°58'0 0.0
2017-Aug-14 08:57N 58°54' E 017°58'0 0.0
2017-Aug-14 08:29N 58°54' E 017°58'0 0.0
2017-Aug-14 08:00N 58°54' E 017°58'0 0.0
2017-Aug-14 07:29N 58°54' E 017°58'2 4.1
2017-Aug-14 07:00N 58°54' E 018°01'815.9
2017-Aug-14 06:30N 58°46' E 018°06'1020.8
2017-Aug-14 06:01N 58°39' E 018°20'1020.9
2017-Aug-14 05:30N 58°32' E 018°34'1020.9
2017-Aug-14 05:01N 58°24' E 018°48'32 0.8
2017-Aug-12 15:33N 58°47' E 018°06'321.5
2017-Aug-12 15:24N 58°45' E 018°11'718.8
2017-Aug-12 15:01N 58°39' E 018°20'1020.7
2017-Aug-12 14:31N 58°32' E 018°34'1020.8
2017-Aug-12 14:01N 58°24' E 018°48'1020.4
2017-Aug-12 13:31N 58°17' E 019°01'1019.9
2017-Aug-12 13:01N 58°11' E 019°16'1019.8
2017-Aug-12 12:30N 58°06' E 019°33'1420.0
2017-Aug-12 11:49N 57°59' E 019°55'719.5
2017-Aug-12 11:27N 57°55' E 020°07'1319.8
2017-Aug-12 10:46N 57°48' E 020°28'40 6.3
2017-Aug-12 04:22N 57°26' E 021°30'1317.7
2017-Aug-12 03:38N 57°33' E 021°10'320.4
2017-Aug-12 03:30N 57°34' E 021°06'2420.0
2017-Aug-12 02:18N 57°47' E 020°28'619.9
2017-Aug-12 02:00N 57°50' E 020°18'1020.0
2017-Aug-12 01:30N 57°55' E 020°02'1020.5
2017-Aug-12 01:00N 58°01' E 019°46'1020.4
2017-Aug-12 00:30N 58°06' E 019°30'1020.2
2017-Aug-12 00:01N 58°11' E 019°13'1019.6
2017-Aug-11 23:30N 58°15' E 018°56'815.6
2017-Aug-11 23:01N 58°21' E 018°48'1019.4
2017-Aug-11 22:31N 58°29' E 018°38'1020.0
2017-Aug-11 22:00N 58°37' E 018°25'1020.0
2017-Aug-11 21:31N 58°44' E 018°12'917.5
2017-Aug-11 21:01N 58°50' E 017°60'  
Track history (hours):
 
Tides and Currents Weather Stations Pressure Air Temp Water Temp Dewpoint Dewpoint Depression Visibility Wind Speed Wind Dir Waves Ship Positions

Scottish Viking

Last reported at 2017-Aug-21 20:44 UTC. Time now 2017-Aug-22 18:29 UTC.
Position N 58°40' E 018°21'.

Length 186 m; draft 6.5 m.

Type: Passenger vessel. MMSI: 247265800.

Date/timePositionNaut miles runAvg speedWind from/ knotsBaromVisibWave heightAir tempDewpointWater temp
2017-Aug-21 20:44N 58°40' E 018°21'921.4
2017-Aug-21 20:17N 58°46' E 018°08'10 0.8
2017-Aug-21 07:18N 58°54' E 017°58'2 6.4
2017-Aug-21 06:58N 58°53' E 018°01'715.7
2017-Aug-21 06:30N 58°46' E 018°07'1020.5
2017-Aug-21 06:00N 58°39' E 018°20'5313.6
2017-Aug-21 02:04N 58°04' E 019°36'114.3
2017-Aug-21 02:00N 58°03' E 019°38'1014.3
2017-Aug-21 01:16N 57°58' E 019°54'414.2
2017-Aug-21 01:00N 57°56' E 020°00'1214.0
2017-Aug-21 00:09N 57°50' E 020°20'214.1
2017-Aug-20 23:59N 57°49' E 020°24'2114.0
2017-Aug-20 22:27N 57°37' E 020°57'122 4.2
2017-Aug-19 17:00N 58°54' E 017°58'5 4.6
2017-Aug-19 15:52N 58°49' E 017°60'820.7
2017-Aug-19 15:30N 58°44' E 018°11'918.7
2017-Aug-19 15:00N 58°38' E 018°23'2319.7
2017-Aug-19 13:51N 58°21' E 018°54'719.6
2017-Aug-19 13:29N 58°16' E 019°03'1119.0
2017-Aug-19 12:55N 58°10' E 019°19'1319.1
2017-Aug-19 12:14N 58°04' E 019°42'419.4
2017-Aug-19 12:00N 58°02' E 019°49'1519.2
2017-Aug-19 11:13N 57°53' E 020°12'20 1.9
2017-Aug-19 00:46N 58°02' E 019°38'5119.9
2017-Aug-18 22:12N 58°37' E 018°26'420.2
2017-Aug-18 22:01N 58°40' E 018°21'1020.3
2017-Aug-18 21:30N 58°47' E 018°07'137 7.7
2017-Aug-18 03:44N 57°24' E 021°34'3 6.7
2017-Aug-18 03:20N 57°26' E 021°30'619.6
2017-Aug-18 03:00N 57°30' E 021°20'918.3
2017-Aug-18 02:30N 57°34' E 021°06'1019.8
2017-Aug-18 02:01N 57°39' E 020°50'815.7
2017-Aug-18 01:30N 57°42' E 020°36'1118.2
2017-Aug-18 00:54N 57°49' E 020°20'2619.8
2017-Aug-17 23:33N 58°03' E 019°38'219.9
2017-Aug-17 23:28N 58°04' E 019°35'919.8
2017-Aug-17 23:00N 58°09' E 019°20'1019.4
2017-Aug-17 22:30N 58°15' E 019°05'1019.8
2017-Aug-17 22:00N 58°22' E 018°52'1019.6
2017-Aug-17 21:30N 58°29' E 018°39'1019.8
2017-Aug-17 21:00N 58°36' E 018°26'1019.8
2017-Aug-17 20:30N 58°43' E 018°13'918.6
2017-Aug-17 20:00N 58°49' E 017°60'611.1
2017-Aug-17 19:31N 58°55' E 017°59'1 1.7
2017-Aug-17 19:00N 58°54' E 017°58'0 0.0
2017-Aug-17 18:30N 58°54' E 017°58'0 0.0
2017-Aug-17 18:00N 58°54' E 017°58'0 0.0
2017-Aug-17 17:30N 58°54' E 017°58'0 0.0
2017-Aug-17 17:00N 58°54' E 017°58'0 0.0
2017-Aug-17 16:30N 58°54' E 017°58'0 0.0
2017-Aug-17 16:00N 58°54' E 017°58'0 0.0
2017-Aug-17 15:26N 58°54' E 017°58'2 4.3
2017-Aug-17 15:00N 58°54' E 018°01'917.9
2017-Aug-17 14:30N 58°46' E 018°09'1121.6
2017-Aug-17 14:00N 58°38' E 018°23'1020.4
2017-Aug-17 13:30N 58°31' E 018°37'918.8
2017-Aug-17 13:01N 58°23' E 018°47'1019.4
2017-Aug-17 12:31N 58°14' E 018°52'916.9
2017-Aug-17 12:00N 58°11' E 019°08'1020.1
2017-Aug-17 11:30N 58°10' E 019°27'1020.3
2017-Aug-17 11:00N 58°11' E 019°46'1020.1
2017-Aug-17 10:31N 58°07' E 020°03'1119.9
2017-Aug-17 09:59N 57°59' E 020°15'1120.3
2017-Aug-17 09:27N 57°50' E 020°28'3819.3
2017-Aug-17 07:30N 57°28' E 021°25'51 7.4
2017-Aug-17 00:33N 57°53' E 020°00'320.0
2017-Aug-17 00:25N 57°54' E 019°56'1219.9
2017-Aug-16 23:49N 58°02' E 019°39'720.0
2017-Aug-16 23:28N 58°06' E 019°29'1019.7
2017-Aug-16 22:59N 58°11' E 019°13'1019.8
2017-Aug-16 22:28N 58°17' E 018°58'919.7
2017-Aug-16 22:00N 58°24' E 018°47'1019.4
2017-Aug-16 21:30N 58°31' E 018°34'1019.6
2017-Aug-16 21:00N 58°38' E 018°20'1521.9
2017-Aug-16 20:18N 58°49' E 018°00'613.2
2017-Aug-16 19:53N 58°55' E 017°59'50 6.8
2017-Aug-16 12:30N 58°13' E 018°53'918.1
2017-Aug-16 12:00N 58°11' E 019°09'1019.8
2017-Aug-16 11:30N 58°09' E 019°28'917.6
2017-Aug-16 11:00N 58°01' E 019°36'1019.9
2017-Aug-16 10:30N 57°53' E 019°45'918.7
2017-Aug-16 10:00N 57°49' E 020°01'1019.5
2017-Aug-16 09:30N 57°44' E 020°18'1121.8
2017-Aug-16 09:00N 57°40' E 020°36'1019.7
2017-Aug-16 08:30N 57°36' E 020°53'1019.5
2017-Aug-16 08:00N 57°32' E 021°10'1020.0
2017-Aug-16 07:30N 57°28' E 021°26'610.4
2017-Aug-16 06:58N 57°24' E 021°34'0 1.1
2017-Aug-16 06:30N 57°24' E 021°35'1 0.4
2017-Aug-16 03:34N 57°24' E 021°33'0 5.4
2017-Aug-16 03:31N 57°24' E 021°32'1418.4
2017-Aug-16 02:46N 57°32' E 021°12'1819.1
2017-Aug-16 01:50N 57°41' E 020°43'719.3
2017-Aug-16 01:28N 57°43' E 020°30'4017.6
2017-Aug-15 23:13N 58°06' E 019°29'419.9
2017-Aug-15 23:01N 58°08' E 019°23'1121.0
2017-Aug-15 22:30N 58°15' E 019°07'918.1
2017-Aug-15 22:01N 58°21' E 018°55'1222.9
2017-Aug-15 21:30N 58°29' E 018°39'917.9
2017-Aug-15 21:00N 58°36' E 018°27'1017.8
2017-Aug-15 20:28N 58°43' E 018°14'918.7
2017-Aug-15 20:00N 58°49' E 018°02'712.9
2017-Aug-15 19:29N 58°55' E 017°59'1 1.8
2017-Aug-15 18:59N 58°54' E 017°58'0 0.0
2017-Aug-15 18:20N 58°54' E 017°58'0 0.0
2017-Aug-15 17:57N 58°54' E 017°58'0 0.0
2017-Aug-15 17:28N 58°54' E 017°58'0 0.0
2017-Aug-15 15:51N 58°54' E 017°58'0 0.1
2017-Aug-15 15:21N 58°54' E 017°58'2 5.2
2017-Aug-15 14:58N 58°54' E 018°01'817.2
2017-Aug-15 14:30N 58°46' E 018°07'1019.5
2017-Aug-15 14:00N 58°40' E 018°21'1020.2
2017-Aug-15 13:30N 58°32' E 018°35'1020.1
2017-Aug-15 12:59N 58°24' E 018°45'1320.1
2017-Aug-15 12:21N 58°12' E 018°56'819.1
2017-Aug-15 11:57N 58°11' E 019°10'919.8
2017-Aug-15 11:30N 58°09' E 019°26'1219.9
2017-Aug-15 10:53N 58°04' E 019°48'1020.0
2017-Aug-15 10:24N 58°00' E 020°05'820.3
2017-Aug-15 10:00N 57°55' E 020°17'5 0.5
2017-Aug-15 00:34N 57°53' E 020°09'519.0
2017-Aug-15 00:16N 57°54' E 019°59'518.8
2017-Aug-15 00:00N 57°54' E 019°49'918.8
2017-Aug-14 23:30N 57°56' E 019°32'1019.6
2017-Aug-14 23:00N 58°05' E 019°30'1020.5
2017-Aug-14 22:30N 58°11' E 019°13'1020.2
2017-Aug-14 22:00N 58°18' E 018°59'1122.2
2017-Aug-14 21:30N 58°26' E 018°45'1020.3
2017-Aug-14 21:01N 58°33' E 018°32'1019.4
2017-Aug-14 20:30N 58°40' E 018°19'1122.8
2017-Aug-14 20:00N 58°48' E 018°03'612.2
2017-Aug-14 19:30N 58°54' E 018°01'2 3.6
2017-Aug-14 19:00N 58°54' E 017°58'0 0.0
2017-Aug-14 18:30N 58°54' E 017°58'0 0.0
2017-Aug-14 18:01N 58°54' E 017°58'0 0.0
2017-Aug-14 17:30N 58°54' E 017°58'0 0.0
2017-Aug-14 17:00N 58°54' E 017°58'0 0.0
2017-Aug-14 16:30N 58°54' E 017°58'0 0.0
2017-Aug-14 16:00N 58°54' E 017°58'0 0.0
2017-Aug-14 15:30N 58°54' E 017°58'0 0.0
2017-Aug-14 15:00N 58°54' E 017°58'0 0.0
2017-Aug-14 14:30N 58°54' E 017°58'0 0.0
2017-Aug-14 14:00N 58°54' E 017°58'0 0.0
2017-Aug-14 13:31N 58°54' E 017°58'0 0.0
2017-Aug-14 13:00N 58°54' E 017°58'0 0.0
2017-Aug-14 12:30N 58°54' E 017°58'0 0.0
2017-Aug-14 12:00N 58°54' E 017°58'0 0.0
2017-Aug-14 08:57N 58°54' E 017°58'0 0.0
2017-Aug-14 08:29N 58°54' E 017°58'0 0.0
2017-Aug-14 08:00N 58°54' E 017°58'0 0.0
2017-Aug-14 07:29N 58°54' E 017°58'2 4.1
2017-Aug-14 07:00N 58°54' E 018°01'815.9
2017-Aug-14 06:30N 58°46' E 018°06'1020.8
2017-Aug-14 06:01N 58°39' E 018°20'1020.9
2017-Aug-14 05:30N 58°32' E 018°34'1020.9
2017-Aug-14 05:01N 58°24' E 018°48'32 0.8
2017-Aug-12 15:33N 58°47' E 018°06'321.5
2017-Aug-12 15:24N 58°45' E 018°11'718.8
2017-Aug-12 15:01N 58°39' E 018°20'1020.7
2017-Aug-12 14:31N 58°32' E 018°34'1020.8
2017-Aug-12 14:01N 58°24' E 018°48'1020.4
2017-Aug-12 13:31N 58°17' E 019°01'1019.9
2017-Aug-12 13:01N 58°11' E 019°16'1019.8
2017-Aug-12 12:30N 58°06' E 019°33'1420.0
2017-Aug-12 11:49N 57°59' E 019°55'719.5
2017-Aug-12 11:27N 57°55' E 020°07'1319.8
2017-Aug-12 10:46N 57°48' E 020°28'40 6.3
2017-Aug-12 04:22N 57°26' E 021°30'1317.7
2017-Aug-12 03:38N 57°33' E 021°10'320.4
2017-Aug-12 03:30N 57°34' E 021°06'2420.0
2017-Aug-12 02:18N 57°47' E 020°28'619.9
2017-Aug-12 02:00N 57°50' E 020°18'1020.0
2017-Aug-12 01:30N 57°55' E 020°02'1020.5
2017-Aug-12 01:00N 58°01' E 019°46'1020.4
2017-Aug-12 00:30N 58°06' E 019°30'1020.2
2017-Aug-12 00:01N 58°11' E 019°13'1019.6
2017-Aug-11 23:30N 58°15' E 018°56'815.6
2017-Aug-11 23:01N 58°21' E 018°48'1019.4
2017-Aug-11 22:31N 58°29' E 018°38'1020.0
2017-Aug-11 22:00N 58°37' E 018°25'1020.0
2017-Aug-11 21:31N 58°44' E 018°12'917.5
2017-Aug-11 21:01N 58°50' E 017°60'  

Dump ship's entire track history